Flight Track Log - Related Links

Times and Time Zones

All times are in EST time to prevent confusion due to time zone crossing. See the SWA1563 flight status page for this flight to view local times or setup timezone preferences in your user account.

Time Position Orientation Groundspeed Altitude Reporting Facility
EST Latitude Longitude Course Direction KTS MPH feet Rate Location/Type
Mon 10:27:29 PM 33.6333 -117.9000 320° Northwest 150 173 2,400  Level Southern California TRACON
Mon 10:28:44 PM 33.5711 -117.9022 182° South 173 199 4,700 2,647 Climbing Los Angeles Center
Mon 10:29:45 PM 33.5050 -117.9478 210° Southwest 260 299 8,400 3,463 Climbing Los Angeles Center
Mon 10:30:47 PM 33.4344 -117.9972 210° Southwest 283 326 11,800 3,171 Climbing Los Angeles Center
Mon 10:31:48 PM 33.3525 -118.0606 213° Southwest 332 382 14,900 3,122 Climbing Los Angeles Center
Mon 10:32:00 PM 34.1175 -118.3283 320° Northwest  Level Estimated
Mon 10:32:50 PM 33.3539 -118.1742 271° West 362 417 18,200  Level Los Angeles Center
Mon 10:33:51 PM 33.4236 -118.2694 311° West 375 432 21,600 2,829 Climbing Los Angeles Center
Mon 10:34:53 PM 33.4958 -118.3678 311° West 385 443 24,000 1,171 Climbing Los Angeles Center
Mon 10:35:54 PM 33.5717 -118.4711 311° West 403 464 24,000 341 Level Los Angeles Center
Mon 10:36:56 PM 33.6461 -118.5725 311° West 399 459 24,700 871 Climbing Los Angeles Center
Mon 10:37:58 PM 33.7203 -118.6725 312° West 397 457 25,800 878 Climbing Los Angeles Center
Mon 10:38:59 PM 33.7939 -118.7747 311° West 401 461 26,500 1,073 Climbing Los Angeles Center
Mon 10:40:01 PM 33.8675 -118.8775 311° West 405 466 28,000 1,415 Climbing Los Angeles Center
Mon 10:41:02 PM 33.9558 -118.9981 311° West 399 459 29,400 1,366 Climbing Los Angeles Center
Mon 10:42:04 PM 34.0322 -119.1053 311° West 419 482 30,800 1,902 Climbing Los Angeles Center
Mon 10:43:05 PM 34.1081 -119.2119 311° West 419 482 33,300 2,537 Climbing Los Angeles Center
Mon 10:44:07 PM 34.1806 -119.3125 311° West 400 460 36,000 2,419 Climbing Los Angeles Center
Mon 10:45:09 PM 34.2492 -119.4083 311° West 381 438 38,300 1,805 Climbing Los Angeles Center
Mon 10:46:10 PM 34.3139 -119.5000 311° West 363 418 39,700 829 Climbing Los Angeles Center
Mon 10:47:12 PM 34.3800 -119.5925 311° West 363 418 40,000 146 Climbing Los Angeles Center
Mon 10:48:13 PM 34.4469 -119.6864 311° West 369 425 40,000  Level Los Angeles Center
Mon 10:49:15 PM 34.5328 -119.7939 314° West 369 425 40,000  Level Los Angeles Center
Mon 10:50:17 PM 34.6150 -119.8603 326° Northwest 383 441 40,000  Level Los Angeles Center
Mon 10:51:18 PM 34.7031 -119.9314 326° Northwest 381 438 40,000  Level Los Angeles Center
Mon 10:52:20 PM 34.7908 -120.0036 326° Northwest 382 440 40,000  Level Los Angeles Center
Mon 10:53:21 PM 34.8783 -120.0758 326° Northwest 379 436 40,000  Level Los Angeles Center
Mon 10:54:23 PM 34.9744 -120.1547 326° Northwest 379 436 40,000  Level Los Angeles Center
Mon 10:55:25 PM 35.0594 -120.2272 325° Northwest 376 433 40,000  Level Los Angeles Center
Mon 10:56:26 PM 35.1450 -120.2981 326° Northwest 375 432 40,000  Level Los Angeles Center
Mon 10:57:28 PM 35.2292 -120.3694 325° Northwest 370 426 40,000  Level Los Angeles Center
Mon 10:58:29 PM 35.3325 -120.4575 325° Northwest 374 430 40,000  Level Los Angeles Center
Mon 10:59:31 PM 35.4161 -120.5289 325° Northwest 372 428 40,000  Level Los Angeles Center
Mon 11:00:32 PM 35.5011 -120.6014 325° Northwest 375 432 40,000  Level Los Angeles Center
Mon 11:01:34 PM 35.5861 -120.6736 325° Northwest 373 429 40,000 -49 Level Los Angeles Center
Mon 11:02:35 PM 35.6706 -120.7442 326° Northwest 367 422 39,900 -1,073 Descending Los Angeles Center
Mon 11:03:37 PM 35.7531 -120.8147 325° Northwest 362 417 37,800 -2,293 Descending Los Angeles Center
Mon 11:04:38 PM 35.8356 -120.8858 325° Northwest 361 415 35,200 -2,927 Descending Los Angeles Center
Mon 11:05:40 PM 35.9386 -120.9739 325° Northwest 373 429 31,800 -2,698 Descending Los Angeles Center
Mon 11:07:07 PM 36.0633 -121.0792 326° Northwest 386 444 28,500 -2,270 Descending Oakland Center
Mon 11:08:08 PM 36.1489 -121.1517 326° Northwest 376 433 26,200 -2,213 Descending Oakland Center
Mon 11:09:09 PM 36.2333 -121.2244 325° Northwest 370 426 24,000 -2,066 Descending Oakland Center
Mon 11:10:10 PM 36.3169 -121.2958 325° Northwest 365 420 22,000 -1,967 Descending Oakland Center
Mon 11:11:11 PM 36.3947 -121.3614 326° Northwest 341 392 20,000 -2,213 Descending Oakland Center
Mon 11:12:12 PM 36.4883 -121.3964 343° North 350 403 17,500 -2,195 Descending Oakland Center
Mon 11:13:14 PM 36.5828 -121.4239 347° North 348 400 15,500 -2,016 Descending Oakland Center
Mon 11:14:14 PM 36.6736 -121.4514 346° North 338 389 13,400 -1,983 Descending Oakland Center
Mon 11:15:15 PM 36.7636 -121.4794 346° North 331 381 11,500 -1,721 Descending Oakland Center
Mon 11:16:16 PM 36.8606 -121.5139 344° North 317 365 9,900 -1,475 Descending Oakland Center
Mon 11:17:17 PM 36.9311 -121.5586 333° Northwest 296 341 8,500 -1,475 Descending Oakland Center
Mon 11:18:18 PM 36.9986 -121.6058 331° Northwest 283 326 6,900 -1,328 Descending Oakland Center
Mon 11:19:19 PM 37.0644 -121.6494 332° Northwest 273 314 5,800 -864 Descending Oakland Center
Mon 11:20:16 PM 37.1333 -121.6833 339° North 243 280 5,200 -769 Descending Northern Cal TRACON
Mon 11:21:16 PM 37.1833 -121.7333 321° Northwest 233 268 4,300 -1,050 Descending Northern Cal TRACON
Mon 11:22:16 PM 37.2333 -121.7833 321° Northwest 216 249 3,100 -1,050 Descending Northern Cal TRACON
Mon 11:23:16 PM 37.2667 -121.8333 310° West 196 226 2,200 -900 Descending Northern Cal TRACON
Mon 11:24:16 PM 37.3167 -121.8667 332° Northwest 163 188 1,300 -800 Descending Northern Cal TRACON
Mon 11:25:16 PM 37.3333 -121.9000 302° West 128 147 600 -700 Descending Northern Cal TRACON
Mon 11:28:00 PM 37.3500 -121.9167 North  Level FlightAware Approximate

Login

Don't have an account? Register now (free) for customized features, flight alerts, and more!